Time;durP1;ratioP1;P1;durP2;ratioP2;P2;SDS_P1;SDS_P2;PMS_P1;PMS_P2;Temp;Humidity;BMP_temperature;BMP_pressure;BME280_temperature;BME280_humidity;BME280_pressure;Samples;Min_cycle;Max_cycle;Signal;HPM_P1;HPM_P2
2022/06/02 00:01:16;;;;;;;0.60;0.60;;;13.20;99.90;;;;;;4421804;32;20068;-68
2022/06/02 00:04:07;;;;;;;0.22;0.22;;;13.20;99.90;;;;;;4440658;32;20093;-68
2022/06/02 00:06:49;;;;;;;0.40;0.40;;;13.30;99.90;;;;;;4441283;32;20081;-68
2022/06/02 00:09:45;;;;;;;0.22;0.22;;;13.20;99.90;;;;;;4441085;32;20066;-68
2022/06/02 00:12:24;;;;;;;0.68;0.68;;;13.20;99.90;;;;;;4441191;32;20476;-68
2022/06/02 00:15:16;;;;;;;0.40;0.40;;;13.20;99.90;;;;;;4440804;32;20061;-68
2022/06/02 00:18:03;;;;;;;0.40;0.40;;;13.20;99.90;;;;;;4436403;32;20142;-68
2022/06/02 00:20:50;;;;;;;0.30;0.30;;;13.20;99.90;;;;;;4438116;32;20065;-68
2022/06/02 00:23:36;;;;;;;0.52;0.40;;;13.20;99.90;;;;;;4439529;32;20076;-68
2022/06/02 00:26:19;;;;;;;0.20;0.20;;;13.20;99.90;;;;;;4442304;32;20120;-68
2022/06/02 00:29:02;;;;;;;0.30;0.30;;;13.20;99.90;;;;;;4423273;32;20094;-68
2022/06/02 00:31:40;;;;;;;0.50;0.50;;;13.20;99.90;;;;;;4424744;32;20097;-68
2022/06/02 00:34:22;;;;;;;0.40;0.40;;;13.10;99.90;;;;;;4440569;32;20136;-68
2022/06/02 00:37:07;;;;;;;0.20;0.20;;;13.10;99.90;;;;;;4435846;32;20100;-68
2022/06/02 00:39:34;;;;;;;0.57;0.57;;;13.20;99.90;;;;;;4439437;32;20084;-68
2022/06/02 00:42:14;;;;;;;0.40;0.40;;;13.20;99.90;;;;;;4441670;32;20070;-68
2022/06/02 00:44:49;;;;;;;0.40;0.40;;;13.30;99.90;;;;;;4439097;32;20160;-68
2022/06/02 00:47:54;;;;;;;0.37;0.37;;;13.30;99.90;;;;;;4439169;32;20078;-68
2022/06/02 00:50:44;;;;;;;0.35;0.35;;;13.30;99.90;;;;;;4441333;32;20100;-68
2022/06/02 00:53:33;;;;;;;0.28;0.28;;;13.20;99.90;;;;;;4439696;32;20060;-68
2022/06/02 00:57:31;;;;;;;0.40;0.40;;;13.10;99.90;;;;;;4440458;32;20057;-68
2022/06/02 00:59:43;;;;;;;0.50;0.50;;;13.10;99.90;;;;;;4409712;32;20112;-68
2022/06/02 01:02:09;;;;;;;0.40;0.40;;;12.90;99.90;;;;;;4430683;32;20077;-68
2022/06/02 01:04:38;;;;;;;0.30;0.30;;;13.00;99.90;;;;;;4437292;32;20058;-68
2022/06/02 01:07:34;;;;;;;0.30;0.30;;;13.00;99.90;;;;;;4438168;32;20088;-68
2022/06/02 01:10:08;;;;;;;0.32;0.32;;;12.90;99.90;;;;;;4437698;32;20097;-68
2022/06/02 01:12:51;;;;;;;0.40;0.40;;;12.80;99.90;;;;;;4439798;32;20101;-68
2022/06/02 01:15:47;;;;;;;0.30;0.30;;;12.80;99.90;;;;;;4440376;32;20530;-68
2022/06/02 01:18:49;;;;;;;0.45;0.40;;;12.70;99.90;;;;;;4438465;32;20081;-68
2022/06/02 01:21:39;;;;;;;0.57;0.57;;;12.60;99.90;;;;;;4442076;32;20068;-68
2022/06/02 01:24:25;;;;;;;0.40;0.40;;;12.60;99.90;;;;;;4442247;32;20097;-68
2022/06/02 01:27:15;;;;;;;0.20;0.20;;;12.60;99.90;;;;;;4438927;32;20516;-68
2022/06/02 01:29:52;;;;;;;0.28;0.28;;;12.50;99.90;;;;;;4420555;32;20081;-68
2022/06/02 01:32:24;;;;;;;0.40;0.40;;;12.50;99.90;;;;;;4431568;32;100202;-68
2022/06/02 01:35:05;;;;;;;1.67;1.35;;;12.50;99.90;;;;;;4442293;32;20096;-68
2022/06/02 01:37:43;;;;;;;2.42;0.82;;;12.50;99.90;;;;;;4437289;32;20119;-68
2022/06/02 01:40:31;;;;;;;0.43;0.43;;;12.40;99.90;;;;;;4440336;32;20438;-68
2022/06/02 01:43:10;;;;;;;0.30;0.30;;;12.40;99.90;;;;;;4438355;32;20065;-68
2022/06/02 01:45:46;;;;;;;0.40;0.40;;;12.40;99.90;;;;;;4439308;32;20080;-68
2022/06/02 01:48:22;;;;;;;0.40;0.40;;;12.40;99.90;;;;;;4440689;32;20417;-68
2022/06/02 01:51:15;;;;;;;0.40;0.40;;;12.40;99.90;;;;;;4438863;32;20064;-68
2022/06/02 01:53:50;;;;;;;0.22;0.22;;;12.40;99.90;;;;;;4442154;32;20141;-68
2022/06/02 01:56:49;;;;;;;0.30;0.30;;;12.40;99.90;;;;;;4439358;32;20072;-68
2022/06/02 01:59:24;;;;;;;0.40;0.40;;;12.30;99.90;;;;;;4420520;32;20101;-69
2022/06/02 02:02:14;;;;;;;0.40;0.40;;;12.20;99.90;;;;;;4432787;32;20073;-68
2022/06/02 02:05:05;;;;;;;0.50;0.50;;;12.20;99.90;;;;;;4439316;32;20888;-68
2022/06/02 02:08:01;;;;;;;0.40;0.40;;;12.30;99.90;;;;;;4437573;32;20073;-68
2022/06/02 02:10:45;;;;;;;0.20;0.20;;;12.20;99.90;;;;;;4435711;32;20068;-68
2022/06/02 02:13:39;;;;;;;0.68;0.40;;;12.30;99.90;;;;;;4439379;32;20183;-68
2022/06/02 02:16:44;;;;;;;0.50;0.50;;;12.20;99.90;;;;;;4438124;32;20093;-68
2022/06/02 02:19:38;;;;;;;0.30;0.30;;;12.20;99.90;;;;;;4430843;32;20496;-68
2022/06/02 02:22:27;;;;;;;0.40;0.40;;;12.20;99.90;;;;;;4437775;32;20072;-69
2022/06/02 02:25:09;;;;;;;0.30;0.30;;;12.10;99.90;;;;;;4439570;32;20223;-68
2022/06/02 02:28:06;;;;;;;0.20;0.20;;;12.00;99.90;;;;;;4432071;32;20504;-68
2022/06/02 02:30:41;;;;;;;0.40;0.40;;;11.90;99.90;;;;;;4421179;32;20093;-68
2022/06/02 02:33:34;;;;;;;0.30;0.30;;;11.80;99.90;;;;;;4442651;32;20092;-68
2022/06/02 02:36:24;;;;;;;0.40;0.40;;;11.80;99.90;;;;;;4438177;32;20085;-68
2022/06/02 02:39:15;;;;;;;0.40;0.40;;;11.80;99.90;;;;;;4437091;32;20093;-68
2022/06/02 02:41:50;;;;;;;0.20;0.20;;;11.70;99.90;;;;;;4436978;32;20069;-68
2022/06/02 02:44:43;;;;;;;0.40;0.40;;;11.70;99.90;;;;;;4440023;32;20438;-68
2022/06/02 02:47:17;;;;;;;0.30;0.30;;;11.70;99.90;;;;;;4437355;32;20090;-68
2022/06/02 02:49:51;;;;;;;0.30;0.30;;;11.70;99.90;;;;;;4439085;32;20092;-68
2022/06/02 02:52:41;;;;;;;0.40;0.40;;;11.70;99.90;;;;;;4439708;32;20413;-68
2022/06/02 02:55:14;;;;;;;0.40;0.40;;;11.80;99.90;;;;;;4437983;32;20145;-68
2022/06/02 02:57:50;;;;;;;0.20;0.20;;;11.80;99.90;;;;;;4433873;32;20168;-68
2022/06/02 03:00:33;;;;;;;0.37;0.37;;;11.70;99.90;;;;;;4420954;32;20504;-68
2022/06/02 03:03:08;;;;;;;0.30;0.30;;;11.60;99.90;;;;;;4436011;32;20126;-68
2022/06/02 03:05:47;;;;;;;0.30;0.30;;;11.60;99.90;;;;;;4442421;32;20536;-68
2022/06/02 03:08:30;;;;;;;0.30;0.30;;;11.60;99.90;;;;;;4436308;32;20111;-68
2022/06/02 03:11:10;;;;;;;0.30;0.30;;;11.70;99.90;;;;;;4443788;32;20092;-68
2022/06/02 03:13:46;;;;;;;0.37;0.37;;;11.60;99.90;;;;;;4445194;32;20503;-68
2022/06/02 03:16:14;;;;;;;0.22;0.22;;;11.60;99.90;;;;;;4440112;32;20088;-68
2022/06/02 03:19:19;;;;;;;0.30;0.30;;;11.60;99.90;;;;;;4437340;32;20085;-68
2022/06/02 03:21:53;;;;;;;0.22;0.22;;;11.50;99.90;;;;;;4428250;32;20478;-68
2022/06/02 03:24:39;;;;;;;0.40;0.40;;;11.60;99.90;;;;;;4445694;32;20057;-68
2022/06/02 03:27:21;;;;;;;0.50;0.50;;;11.50;99.90;;;;;;4441760;32;20081;-68
2022/06/02 03:29:55;;;;;;;0.30;0.30;;;11.50;99.90;;;;;;4422404;32;20065;-68
2022/06/02 03:32:40;;;;;;;0.75;0.30;;;11.50;99.90;;;;;;4432619;32;20076;-68
2022/06/02 03:35:24;;;;;;;0.30;0.30;;;11.60;99.90;;;;;;4441734;32;20554;-68
2022/06/02 03:37:59;;;;;;;0.30;0.30;;;11.50;99.90;;;;;;4442432;32;20068;-68
2022/06/02 03:40:31;;;;;;;0.30;0.30;;;11.50;99.90;;;;;;4442968;32;20081;-68
2022/06/02 03:43:11;;;;;;;0.40;0.40;;;11.50;99.90;;;;;;4439631;32;20089;-68
2022/06/02 03:46:04;;;;;;;0.30;0.30;;;11.40;99.90;;;;;;4442537;32;20056;-68
2022/06/02 03:48:41;;;;;;;0.30;0.30;;;11.50;99.90;;;;;;4444543;32;20462;-68
2022/06/02 03:51:47;;;;;;;0.35;0.35;;;11.60;99.90;;;;;;4440723;32;20085;-68
2022/06/02 03:54:43;;;;;;;0.30;0.30;;;11.70;99.90;;;;;;4433816;32;20113;-68
2022/06/02 03:57:21;;;;;;;0.73;0.73;;;11.70;99.90;;;;;;4439280;32;20431;-68
2022/06/02 04:00:01;;;;;;;0.65;0.40;;;11.70;99.90;;;;;;4421028;32;20486;-68
2022/06/02 04:02:39;;;;;;;0.50;0.50;;;11.70;99.90;;;;;;4432459;32;20086;-68
2022/06/02 04:05:38;;;;;;;0.30;0.30;;;11.80;99.90;;;;;;4439472;32;20541;-68
2022/06/02 04:08:33;;;;;;;0.28;0.28;;;11.80;99.90;;;;;;4439058;32;20065;-68
2022/06/02 04:11:27;;;;;;;0.30;0.30;;;11.90;99.90;;;;;;4445789;32;20576;-68
2022/06/02 04:14:16;;;;;;;0.30;0.30;;;11.90;99.90;;;;;;4439895;32;20061;-68
2022/06/02 04:16:56;;;;;;;0.30;0.30;;;11.80;99.90;;;;;;4439990;32;20074;-68
2022/06/02 04:20:44;;;;;;;0.37;0.37;;;11.80;99.90;;;;;;4433586;32;20085;-68
2022/06/02 04:22:51;;;;;;;0.30;0.30;;;11.80;99.90;;;;;;4406304;32;20077;-68
2022/06/02 04:25:38;;;;;;;0.37;0.37;;;11.80;99.90;;;;;;4399519;32;20069;-68
2022/06/02 04:28:30;;;;;;;0.30;0.30;;;11.90;99.90;;;;;;4390197;32;20927;-68
2022/06/02 04:31:25;;;;;;;0.30;0.30;;;11.90;99.90;;;;;;4383157;32;20467;-68
2022/06/02 04:34:10;;;;;;;0.62;0.62;;;11.90;99.90;;;;;;4398194;32;20210;-68
2022/06/02 04:37:03;;;;;;;0.57;0.57;;;11.90;99.90;;;;;;4439604;32;20430;-68
2022/06/02 04:39:55;;;;;;;0.40;0.40;;;11.80;99.90;;;;;;4441994;32;20084;-68
2022/06/02 04:42:37;;;;;;;2.28;0.85;;;11.80;99.90;;;;;;4439836;32;20122;-68
2022/06/02 04:45:09;;;;;;;0.40;0.40;;;11.70;99.90;;;;;;4442211;32;20073;-68
2022/06/02 04:47:59;;;;;;;0.30;0.30;;;11.80;99.90;;;;;;4440347;32;20093;-68
2022/06/02 04:50:42;;;;;;;0.30;0.30;;;12.00;99.90;;;;;;4438968;32;20419;-68
2022/06/02 04:53:13;;;;;;;0.50;0.50;;;12.10;99.90;;;;;;4414801;32;20892;-68
2022/06/02 04:55:53;;;;;;;0.40;0.40;;;12.20;99.90;;;;;;4402080;32;20303;-68
2022/06/02 04:58:45;;;;;;;0.30;0.30;;;12.30;99.90;;;;;;4431084;32;20072;-68
2022/06/02 05:01:43;;;;;;;0.50;0.50;;;12.30;99.90;;;;;;4411549;32;20097;-68
2022/06/02 05:04:35;;;;;;;0.52;0.52;;;12.20;99.90;;;;;;4409962;32;20112;-68
2022/06/02 05:07:27;;;;;;;0.68;0.68;;;12.20;99.90;;;;;;4401154;32;20451;-68
2022/06/02 05:10:06;;;;;;;0.75;0.52;;;12.30;99.90;;;;;;4393747;32;20431;-68
2022/06/02 05:13:01;;;;;;;0.40;0.40;;;12.30;99.90;;;;;;4390736;32;20121;-68
2022/06/02 05:16:07;;;;;;;0.60;0.60;;;12.10;99.90;;;;;;4403103;32;20414;-68
2022/06/02 05:18:54;;;;;;;0.52;0.50;;;12.10;99.90;;;;;;4356111;32;20219;-68
2022/06/02 05:21:52;;;;;;;0.30;0.30;;;12.10;99.90;;;;;;4357238;32;20245;-68
2022/06/02 05:24:47;;;;;;;0.62;0.60;;;12.20;99.90;;;;;;4335604;32;20354;-68
2022/06/02 05:27:34;;;;;;;0.50;0.50;;;12.20;99.90;;;;;;4342441;32;20102;-68
2022/06/02 05:30:12;;;;;;;0.45;0.43;;;12.20;99.90;;;;;;4329702;32;20421;-68
2022/06/02 05:33:03;;;;;;;0.52;0.52;;;12.20;99.90;;;;;;4351109;32;20701;-69
2022/06/02 05:36:06;;;;;;;0.62;0.60;;;12.30;99.90;;;;;;4347537;32;21064;-68
2022/06/02 05:38:44;;;;;;;0.60;0.60;;;12.30;99.90;;;;;;4348736;32;20306;-69
2022/06/02 05:41:25;;;;;;;1.15;0.60;;;12.20;99.90;;;;;;4361284;32;20186;-69
2022/06/02 05:43:55;;;;;;;0.60;0.60;;;12.20;99.90;;;;;;4375205;32;20437;-68
2022/06/02 05:46:32;;;;;;;0.60;0.60;;;12.10;99.90;;;;;;4402193;32;20105;-68
2022/06/02 05:49:26;;;;;;;0.70;0.50;;;12.20;99.90;;;;;;4393497;32;20396;-68
2022/06/02 05:52:07;;;;;;;0.40;0.40;;;12.20;99.90;;;;;;4387496;32;20183;-68
2022/06/02 05:54:56;;;;;;;1.20;0.60;;;12.30;99.90;;;;;;4402058;32;20093;-68
2022/06/02 05:57:28;;;;;;;0.85;0.60;;;12.40;99.90;;;;;;4397745;32;20093;-68
2022/06/02 06:00:14;;;;;;;2.05;0.75;;;12.40;99.90;;;;;;4382327;32;20077;-69
2022/06/02 06:03:10;;;;;;;0.60;0.60;;;12.40;99.90;;;;;;4370293;32;20896;-68
2022/06/02 06:05:42;;;;;;;0.50;0.50;;;12.50;99.90;;;;;;4361958;32;21352;-68
2022/06/02 06:08:32;;;;;;;0.55;0.50;;;12.40;99.90;;;;;;4384767;32;20575;-69
2022/06/02 06:11:16;;;;;;;0.80;0.55;;;12.50;99.90;;;;;;4391331;32;20109;-68
2022/06/02 06:13:55;;;;;;;0.77;0.77;;;12.40;99.90;;;;;;4396124;32;20838;-69
2022/06/02 06:16:45;;;;;;;1.33;0.73;;;12.50;99.90;;;;;;4405035;32;20061;-69
2022/06/02 06:19:37;;;;;;;0.43;0.43;;;12.50;99.90;;;;;;4375569;32;20119;-69
2022/06/02 06:22:24;;;;;;;0.80;0.80;;;12.60;99.90;;;;;;4374175;32;20252;-68
2022/06/02 06:25:11;;;;;;;3.83;0.70;;;12.70;99.90;;;;;;4384676;32;21629;-68
2022/06/02 06:27:57;;;;;;;5.62;0.95;;;12.60;99.90;;;;;;4393734;32;20445;-68
2022/06/02 06:30:56;;;;;;;0.80;0.80;;;12.50;99.90;;;;;;4375256;32;21050;-67
2022/06/02 06:33:33;;;;;;;0.50;0.50;;;12.50;99.90;;;;;;4353756;32;20899;-69
2022/06/02 06:36:17;;;;;;;0.40;0.40;;;12.60;99.90;;;;;;4365501;32;20664;-69
2022/06/02 06:39:00;;;;;;;12.93;1.80;;;12.80;99.90;;;;;;4391259;32;20101;-69
2022/06/02 06:41:50;;;;;;;1.77;0.70;;;12.90;99.90;;;;;;4402773;32;20694;-69
2022/06/02 06:44:40;;;;;;;0.85;0.57;;;13.00;99.90;;;;;;4394258;32;21553;-69
2022/06/02 06:47:13;;;;;;;0.50;0.50;;;13.20;99.90;;;;;;4398423;32;20530;-69
2022/06/02 06:50:17;;;;;;;0.65;0.65;;;13.20;99.90;;;;;;4370451;32;21345;-69
2022/06/02 06:53:12;;;;;;;1.52;1.12;;;13.30;99.90;;;;;;4380782;32;20360;-69
2022/06/02 06:55:49;;;;;;;1.02;0.82;;;13.40;99.90;;;;;;4394480;32;20098;-69
2022/06/02 06:58:24;;;;;;;1.02;0.85;;;13.50;99.90;;;;;;4402967;32;20455;-69
2022/06/02 07:01:06;;;;;;;1.75;0.62;;;13.40;99.90;;;;;;4378414;32;20081;-69
2022/06/02 07:03:46;;;;;;;0.50;0.50;;;13.50;99.90;;;;;;4355999;32;20292;-69
2022/06/02 07:06:29;;;;;;;0.60;0.50;;;13.50;99.90;;;;;;4377976;32;20798;-69
2022/06/02 07:09:12;;;;;;;11.30;0.80;;;13.60;99.90;;;;;;4387644;32;22193;-69
2022/06/02 07:12:56;;;;;;;0.40;0.40;;;13.60;99.90;;;;;;4383355;32;21338;-69
2022/06/02 07:14:51;;;;;;;1.20;0.85;;;13.80;99.90;;;;;;4401911;32;20199;-69
2022/06/02 07:17:27;;;;;;;0.60;0.60;;;14.00;99.90;;;;;;4394406;32;20187;-69
2022/06/02 07:20:05;;;;;;;1.75;0.55;;;14.10;99.90;;;;;;4369228;32;21730;-69
2022/06/02 07:22:43;;;;;;;0.60;0.60;;;14.10;99.90;;;;;;4386530;32;20916;-70
2022/06/02 07:25:22;;;;;;;0.65;0.50;;;14.00;99.90;;;;;;4395839;32;20392;-67
2022/06/02 07:28:12;;;;;;;0.95;0.50;;;14.00;99.90;;;;;;4392968;32;20363;-69
2022/06/02 07:31:07;;;;;;;0.40;0.40;;;14.00;99.90;;;;;;4376705;32;20357;-70
2022/06/02 07:33:55;;;;;;;0.40;0.40;;;14.10;99.90;;;;;;4371493;32;20121;-69
2022/06/02 07:36:57;;;;;;;0.30;0.30;;;14.40;99.90;;;;;;4383420;32;20431;-70
2022/06/02 07:39:40;;;;;;;0.52;0.52;;;14.40;99.90;;;;;;4407465;32;20130;-70
2022/06/02 07:42:19;;;;;;;0.40;0.40;;;14.60;99.90;;;;;;4406930;32;20368;-69
2022/06/02 07:45:00;;;;;;;0.30;0.30;;;14.80;99.90;;;;;;4408659;32;20279;-69
2022/06/02 07:48:06;;;;;;;0.50;0.50;;;15.00;99.90;;;;;;4412447;32;20608;-69
2022/06/02 07:50:34;;;;;;;0.32;0.32;;;14.90;99.90;;;;;;4383921;32;21013;-70
2022/06/02 07:53:24;;;;;;;0.60;0.60;;;15.20;99.90;;;;;;4396108;32;20100;-70
2022/06/02 07:56:16;;;;;;;0.40;0.40;;;15.50;99.90;;;;;;4408433;32;20160;-69
2022/06/02 07:59:00;;;;;;;0.45;0.45;;;15.60;99.90;;;;;;4402989;32;20474;-70
2022/06/02 08:01:56;;;;;;;0.70;0.70;;;15.50;99.90;;;;;;4386835;32;21286;-69
2022/06/02 08:04:40;;;;;;;0.47;0.47;;;15.20;99.90;;;;;;4374998;32;20125;-69
2022/06/02 08:07:18;;;;;;;0.43;0.43;;;15.00;99.90;;;;;;4396491;32;20594;-69
2022/06/02 08:10:02;;;;;;;0.57;0.57;;;14.90;99.90;;;;;;4403221;32;20081;-70
2022/06/02 08:12:57;;;;;;;0.37;0.37;;;15.10;99.90;;;;;;4403118;32;20195;-70
2022/06/02 08:15:47;;;;;;;0.50;0.50;;;15.50;99.90;;;;;;4407390;32;20215;-70
2022/06/02 08:18:47;;;;;;;0.47;0.47;;;16.00;99.90;;;;;;4391615;32;20249;-69
2022/06/02 08:21:29;;;;;;;0.30;0.30;;;16.40;99.90;;;;;;4387786;32;20179;-70
2022/06/02 08:24:17;;;;;;;0.82;0.47;;;16.50;99.90;;;;;;4391986;32;20100;-69
2022/06/02 08:27:02;;;;;;;0.30;0.30;;;16.40;99.90;;;;;;4405608;32;20121;-69
2022/06/02 08:30:06;;;;;;;0.30;0.30;;;16.10;99.90;;;;;;4398909;32;20072;-69
2022/06/02 08:32:58;;;;;;;0.45;0.45;;;16.10;99.90;;;;;;4383396;32;20583;-69
2022/06/02 08:35:32;;;;;;;0.40;0.40;;;16.30;99.90;;;;;;4376762;32;20473;-69
2022/06/02 08:38:15;;;;;;;0.40;0.40;;;16.40;99.90;;;;;;4404002;32;20847;-69
2022/06/02 08:41:33;;;;;;;0.50;0.50;;;16.40;99.90;;;;;;4407816;32;20089;-69
2022/06/02 08:44:20;;;;;;;0.65;0.50;;;16.40;99.90;;;;;;4407215;32;20133;-69
2022/06/02 08:47:06;;;;;;;0.40;0.40;;;16.10;99.90;;;;;;4407739;32;20114;-69
2022/06/02 08:50:12;;;;;;;0.30;0.30;;;15.90;99.90;;;;;;4391813;32;20328;-69
2022/06/02 08:53:17;;;;;;;0.60;0.52;;;16.00;99.90;;;;;;4381783;32;20353;-69
2022/06/02 08:55:59;;;;;;;0.50;0.50;;;16.20;99.90;;;;;;4398110;32;21212;-69
2022/06/02 08:58:49;;;;;;;0.30;0.30;;;16.40;99.90;;;;;;4403833;32;20480;-70
2022/06/02 09:01:52;;;;;;;0.30;0.30;;;16.70;99.90;;;;;;4378558;32;21135;-68
2022/06/02 09:04:48;;;;;;;0.40;0.40;;;16.80;99.90;;;;;;4371953;32;20300;-69
2022/06/02 09:07:24;;;;;;;0.40;0.35;;;17.10;99.90;;;;;;4390422;32;20815;-70
2022/06/02 09:10:18;;;;;;;0.30;0.30;;;16.90;99.90;;;;;;4397537;32;20246;-68
2022/06/02 09:13:08;;;;;;;0.32;0.32;;;16.90;99.90;;;;;;4401680;32;20165;-69
2022/06/02 09:16:01;;;;;;;0.30;0.30;;;17.10;99.90;;;;;;4401183;32;20096;-69
2022/06/02 09:19:07;;;;;;;0.30;0.30;;;17.40;99.90;;;;;;4387631;32;20453;-70
2022/06/02 09:21:58;;;;;;;0.30;0.30;;;17.20;99.90;;;;;;4364949;32;20273;-69
2022/06/02 09:24:27;;;;;;;0.37;0.37;;;16.70;99.90;;;;;;4381930;32;20112;-69
2022/06/02 09:27:05;;;;;;;0.22;0.22;;;16.50;99.90;;;;;;4390645;32;20946;-69
2022/06/02 09:29:48;;;;;;;0.28;0.28;;;16.70;99.90;;;;;;4382259;32;20124;-70
2022/06/02 09:32:44;;;;;;;0.30;0.30;;;17.00;99.90;;;;;;4364217;32;20112;-70
2022/06/02 09:35:20;;;;;;;0.30;0.30;;;17.10;99.90;;;;;;4371184;32;21034;-70
2022/06/02 09:37:58;;;;;;;0.40;0.40;;;17.40;99.90;;;;;;4386561;32;20465;-69
2022/06/02 09:40:46;;;;;;;0.50;0.50;;;17.60;99.90;;;;;;4401151;32;20112;-70
2022/06/02 09:43:42;;;;;;;0.40;0.40;;;17.60;99.90;;;;;;4396120;32;20085;-70
2022/06/02 09:46:12;;;;;;;0.30;0.30;;;17.90;99.90;;;;;;4396800;32;20164;-70
2022/06/02 09:49:01;;;;;;;0.90;0.47;;;18.30;99.90;;;;;;4378076;32;20278;-69
2022/06/02 09:51:44;;;;;;;0.40;0.40;;;18.40;99.40;;;;;;4368526;32;20266;-69
2022/06/02 09:54:39;;;;;;;0.32;0.32;;;18.20;99.50;;;;;;4394852;32;20105;-69
2022/06/02 09:58:02;;;;;;;0.30;0.30;;;18.00;99.90;;;;;;4388333;32;20104;-69
2022/06/02 10:00:53;;;;;;;0.30;0.30;;;18.30;99.10;;;;;;4377370;32;20097;-70
2022/06/02 10:03:58;;;;;;;0.85;0.82;;;18.50;98.50;;;;;;4372180;32;20160;-69
2022/06/02 10:06:45;;;;;;;0.40;0.40;;;18.60;96.60;;;;;;4372431;32;20761;-69
2022/06/02 10:09:22;;;;;;;0.30;0.30;;;18.70;96.10;;;;;;4390549;32;20093;-69
2022/06/02 10:13:12;;;;;;;0.30;0.30;;;18.90;96.80;;;;;;4403618;32;20088;-70
2022/06/02 10:15:33;;;;;;;0.40;0.40;;;18.90;96.40;;;;;;4396521;32;20438;-70
2022/06/02 10:18:13;;;;;;;0.30;0.30;;;19.20;95.80;;;;;;4375708;32;20887;-69
2022/06/02 10:20:53;;;;;;;0.30;0.30;;;19.30;96.10;;;;;;4365482;32;20503;-69
2022/06/02 10:23:31;;;;;;;0.30;0.30;;;19.70;96.00;;;;;;4385700;32;20128;-70
2022/06/02 10:26:15;;;;;;;0.30;0.30;;;19.80;94.80;;;;;;4401599;32;20600;-70
2022/06/02 10:28:58;;;;;;;0.22;0.22;;;19.70;93.70;;;;;;4398925;32;20291;-69
2022/06/02 10:31:55;;;;;;;0.30;0.30;;;19.70;93.70;;;;;;4368445;32;20250;-69
2022/06/02 10:35:01;;;;;;;1.20;0.82;;;19.90;93.80;;;;;;4372275;32;20766;-69
2022/06/02 10:37:54;;;;;;;2.53;1.10;;;20.40;92.90;;;;;;4389110;32;20165;-69
2022/06/02 10:40:41;;;;;;;0.20;0.20;;;20.80;92.90;;;;;;4408487;32;20591;-69
2022/06/02 10:43:43;;;;;;;0.32;0.32;;;20.90;92.50;;;;;;4407867;32;20149;-69
2022/06/02 10:46:35;;;;;;;0.20;0.20;;;20.30;91.70;;;;;;4411966;32;21942;-69
2022/06/02 10:49:25;;;;;;;0.30;0.30;;;20.50;92.10;;;;;;4388320;32;20399;-69
2022/06/02 10:52:11;;;;;;;;;;;21.00;91.50;;;;;;4374512;32;20240;-69
2022/06/02 10:55:07;;;;;;;0.30;0.30;;;21.10;89.20;;;;;;4400911;32;19984;-69
2022/06/02 10:57:36;;;;;;;0.37;0.37;;;20.90;89.10;;;;;;4392304;32;20702;-71
2022/06/02 11:00:14;;;;;;;0.30;0.30;;;20.80;89.80;;;;;;4376280;32;20891;-69
2022/06/02 11:03:17;;;;;;;0.30;0.30;;;20.50;90.00;;;;;;4367098;32;20448;-70
2022/06/02 11:06:14;;;;;;;0.30;0.30;;;20.80;88.70;;;;;;4377623;32;20104;-69
2022/06/02 11:09:04;;;;;;;0.55;0.55;;;21.40;88.00;;;;;;4390685;32;20104;-69
2022/06/02 11:11:46;;;;;;;1.55;0.82;;;21.20;89.00;;;;;;4391510;32;20118;-69
2022/06/02 11:14:29;;;;;;;0.40;0.40;;;21.60;88.60;;;;;;4400558;32;20650;-69
2022/06/02 11:17:18;;;;;;;0.20;0.20;;;21.80;86.50;;;;;;4395931;32;20902;-69
2022/06/02 11:20:04;;;;;;;0.30;0.30;;;21.80;86.20;;;;;;4394388;32;20142;-69
2022/06/02 11:22:51;;;;;;;0.20;0.20;;;22.40;87.30;;;;;;4396665;32;20350;-69
2022/06/02 11:25:37;;;;;;;0.30;0.30;;;22.80;83.20;;;;;;4391829;32;20567;-69
2022/06/02 11:28:12;;;;;;;1.45;0.88;;;22.90;82.90;;;;;;4407481;32;20077;-69
2022/06/02 11:31:08;;;;;;;0.20;0.20;;;22.00;82.50;;;;;;4395349;32;20210;-69
2022/06/02 11:33:52;;;;;;;0.20;0.20;;;22.00;82.70;;;;;;4377390;32;20175;-69
2022/06/02 11:36:57;;;;;;;0.30;0.30;;;22.30;81.20;;;;;;4400846;32;20085;-69
2022/06/02 11:39:32;;;;;;;0.20;0.20;;;22.80;82.00;;;;;;4400384;32;20901;-69
2022/06/02 11:42:22;;;;;;;0.30;0.30;;;22.90;78.30;;;;;;4377204;32;20195;-69
2022/06/02 11:45:02;;;;;;;0.62;0.37;;;23.30;78.40;;;;;;4373475;32;20576;-69
2022/06/02 11:47:36;;;;;;;0.17;0.17;;;23.20;78.30;;;;;;4386318;32;21567;-70
2022/06/02 11:50:24;;;;;;;0.60;0.40;;;23.40;78.70;;;;;;4396698;32;20296;-70
2022/06/02 11:53:00;;;;;;;0.15;0.15;;;24.10;78.50;;;;;;4405366;32;20147;-70
2022/06/02 11:55:56;;;;;;;0.00;0.00;;;24.10;76.20;;;;;;4401527;32;20117;-70
2022/06/02 11:58:49;;;;;;;0.20;0.20;;;24.20;77.30;;;;;;4402500;32;20151;-70
2022/06/02 12:01:37;;;;;;;0.00;0.00;;;24.60;72.30;;;;;;4404561;32;20481;-70
2022/06/02 12:04:37;;;;;;;0.20;0.10;;;24.20;72.80;;;;;;4378170;32;20166;-68
2022/06/02 12:07:36;;;;;;;0.20;0.20;;;24.60;71.80;;;;;;4405390;32;20128;-68
2022/06/02 12:10:23;;;;;;;2.45;0.30;;;24.40;72.10;;;;;;4416487;32;20085;-68
2022/06/02 12:13:16;;;;;;;0.00;0.00;;;24.60;74.20;;;;;;4396929;32;20504;-68
2022/06/02 12:15:58;;;;;;;0.13;0.13;;;24.10;72.10;;;;;;4410264;32;20257;-69
2022/06/02 12:18:53;;;;;;;0.13;0.13;;;24.40;71.00;;;;;;4402782;32;20243;-69
2022/06/02 12:21:33;;;;;;;0.00;0.00;;;24.60;68.80;;;;;;4405619;32;20468;-68
2022/06/02 12:24:39;;;;;;;0.10;0.10;;;24.70;68.60;;;;;;4403396;32;21037;-69
2022/06/02 12:27:44;;;;;;;0.10;0.10;;;24.90;70.10;;;;;;4400336;32;20904;-69
2022/06/02 12:30:50;;;;;;;0.00;0.00;;;25.50;66.30;;;;;;4390441;32;20101;-68
2022/06/02 12:33:50;;;;;;;0.10;0.10;;;25.80;65.50;;;;;;4388552;32;20401;-68
2022/06/02 12:36:28;;;;;;;2.42;0.30;;;25.80;66.10;;;;;;4403423;32;20136;-69
2022/06/02 12:39:08;;;;;;;0.05;0.05;;;26.40;66.30;;;;;;4408819;32;20108;-69
2022/06/02 12:41:51;;;;;;;0.00;0.00;;;26.30;63.50;;;;;;4406269;32;20251;-68
2022/06/02 12:44:26;;;;;;;0.10;0.10;;;26.40;63.50;;;;;;4412643;32;20327;-68
2022/06/02 12:46:58;;;;;;;0.10;0.10;;;26.00;63.90;;;;;;4409421;32;20061;-69
2022/06/02 12:49:55;;;;;;;0.00;0.00;;;26.30;61.80;;;;;;4395888;32;20097;-69
2022/06/02 12:52:50;;;;;;;0.10;0.10;;;26.20;63.40;;;;;;4406070;32;20307;-69
2022/06/02 12:55:44;;;;;;;0.10;0.10;;;26.50;61.90;;;;;;4410677;32;20629;-69
2022/06/02 12:58:34;;;;;;;0.20;0.20;;;25.50;64.10;;;;;;4404792;32;20283;-70
2022/06/02 13:01:36;;;;;;;0.17;0.17;;;25.70;63.70;;;;;;4404982;32;20450;-69
2022/06/02 13:04:26;;;;;;;0.10;0.10;;;25.70;63.90;;;;;;4393470;32;20879;-69
2022/06/02 13:07:15;;;;;;;0.10;0.10;;;25.90;63.80;;;;;;4406493;32;20587;-69
2022/06/02 13:10:04;;;;;;;0.75;0.20;;;26.30;62.80;;;;;;4409199;32;20086;-69
2022/06/02 13:12:51;;;;;;;0.10;0.10;;;26.90;63.00;;;;;;4402448;32;20633;-69
2022/06/02 13:15:42;;;;;;;0.08;0.08;;;26.40;62.30;;;;;;4386997;32;20216;-69
2022/06/02 13:18:27;;;;;;;0.10;0.10;;;26.10;62.20;;;;;;4393569;32;20576;-70
2022/06/02 13:21:17;;;;;;;0.20;0.20;;;26.10;62.10;;;;;;4393121;32;20124;-69
2022/06/02 13:23:46;;;;;;;1.17;0.45;;;26.50;61.20;;;;;;4400095;32;20060;-70
2022/06/02 13:26:40;;;;;;;0.30;0.22;;;27.30;63.10;;;;;;4400635;32;20380;-69
2022/06/02 13:29:31;;;;;;;0.00;0.00;;;27.60;58.90;;;;;;4400625;32;20427;-69
2022/06/02 13:32:15;;;;;;;0.08;0.08;;;27.10;58.60;;;;;;4398171;32;20105;-69
2022/06/02 13:35:16;;;;;;;0.00;0.00;;;27.10;59.30;;;;;;4395992;32;20635;-68
2022/06/02 13:38:14;;;;;;;0.20;0.20;;;27.20;59.40;;;;;;4411813;32;20490;-69
2022/06/02 13:41:19;;;;;;;0.03;0.03;;;27.20;58.90;;;;;;4409105;32;20148;-69
2022/06/02 13:44:22;;;;;;;0.00;0.00;;;27.40;57.70;;;;;;4398488;32;20259;-69
2022/06/02 13:47:12;;;;;;;0.05;0.05;;;27.90;57.00;;;;;;4383889;32;20077;-69
2022/06/02 13:50:10;;;;;;;0.10;0.10;;;28.00;56.60;;;;;;4389556;32;20510;-69
2022/06/02 13:52:59;;;;;;;0.37;0.28;;;28.10;55.30;;;;;;4407705;32;20200;-69
2022/06/02 13:57:44;;;;;;;0.00;0.00;;;27.70;56.50;;;;;;4420680;32;20167;-69
2022/06/02 13:58:48;;;;;;;0.10;0.10;;;27.50;55.90;;;;;;4407745;32;20312;-69
2022/06/02 14:01:32;;;;;;;0.20;0.20;;;27.40;56.00;;;;;;4406623;32;21121;-69
2022/06/02 14:04:28;;;;;;;0.10;0.10;;;27.80;56.30;;;;;;4391086;32;20073;-69
2022/06/02 14:07:22;;;;;;;0.80;0.47;;;27.30;57.50;;;;;;4406286;32;20178;-69
2022/06/02 14:09:54;;;;;;;0.00;0.00;;;26.00;58.10;;;;;;4415008;32;20411;-69
2022/06/02 14:12:40;;;;;;;0.10;0.10;;;24.70;61.30;;;;;;4407192;32;20333;-69
2022/06/02 14:15:16;;;;;;;0.20;0.20;;;24.80;62.70;;;;;;4399537;32;20146;-69
2022/06/02 14:17:57;;;;;;;0.00;0.00;;;25.90;62.20;;;;;;4387439;32;20305;-68
2022/06/02 14:20:36;;;;;;;5.00;1.45;;;26.20;60.90;;;;;;4401471;32;20136;-69
2022/06/02 14:23:08;;;;;;;1.08;0.20;;;25.10;62.60;;;;;;4410817;32;20073;-69
2022/06/02 14:26:00;;;;;;;0.10;0.10;;;24.10;64.10;;;;;;4414409;32;20395;-68
2022/06/02 14:28:39;;;;;;;0.10;0.10;;;23.80;65.60;;;;;;4409653;32;20842;-67
2022/06/02 14:31:12;;;;;;;0.40;0.40;;;22.90;68.50;;;;;;4397357;32;20185;-67